Portada
METAR-TAF:

METAR-TAF

Aeroports :

Vavaʻu, Tonga

latitud: 18-35-07S, longitud: 173-57-42W, altitud: 72 m

Observació

L'informe es va fer fa 1 hora i 2 minuts, a les 03:00 UTC
Vent 11 kt del Est/Sud-Est
Temperatura 27°C
Humitat 62%
Pressió 1014 hPa
Visibilitat 10 km o més
Núvols disperses a una alçada de 1700 ft

METAR: NFTV 010300Z 11011KT 9999 SCT017 27/19 Q1014

Hora: 17:02 (04:02 UTC)

Pronòstic

L'informe es va fer fa 4 hores i 58 minuts, a les 23:04 UTC
Pronòstic vàlid del 01 a les 00 UTC al 01 a les 24 UTC
Vent 12 kt del Est
Visibilitat 10 km o més
Núvols disperses a una alçada de 1700 ft

TAF: NFTV 302304Z 0100/0124 09012KT 9999 SCT017

Observacions i pronòstics meteorològics de més de 4000 aeroports (METAR i TAF).

Les estacions disponibles són els punts grocs i vermells al mapa.

Posi el ratolí al punt desitjat per veure el nom de l'estació.

Feu clic per veure les observacions i els pronòstics meteorològics.

Per canviar el mapa: feu clic els botons verds amb una creu de color negre per apropar; al botó verd amb un guió per allunyar la imatge; o en les fletxes verdes per a mapes adjacents.


METAR-TAF: